Time;durP1;ratioP1;P1;durP2;ratioP2;P2;SDS_P1;SDS_P2;PMS_P1;PMS_P2;Temp;Humidity;BMP_temperature;BMP_pressure;BME280_temperature;BME280_humidity;BME280_pressure;Samples;Min_cycle;Max_cycle;Signal;HPM_P1;HPM_P2
2022/11/02 00:00:17;;;;;;;6.35;4.00;;;;;;;9.43;88.64;101348.47;7407872;19;20031;-65
2022/11/02 00:02:45;;;;;;;6.75;4.13;;;;;;;9.43;88.48;101345.00;7405518;19;20031;-65
2022/11/02 00:05:15;;;;;;;8.02;4.78;;;;;;;9.40;88.46;101345.00;7406948;19;20033;-66
2022/11/02 00:07:44;;;;;;;5.75;4.28;;;;;;;9.38;88.55;101344.16;7405076;19;20366;-66
2022/11/02 00:10:15;;;;;;;5.13;4.18;;;;;;;9.37;88.36;101339.78;7407585;19;20078;-65
2022/11/02 00:12:43;;;;;;;7.30;3.90;;;;;;;9.34;88.24;101340.69;7405185;19;20533;-66
2022/11/02 00:15:13;;;;;;;6.65;4.30;;;;;;;9.32;88.23;101344.19;7397801;19;20439;-66
2022/11/02 00:17:42;;;;;;;4.97;4.10;;;;;;;9.29;87.98;101347.72;7400070;19;20082;-65
2022/11/02 00:20:14;;;;;;;5.82;4.22;;;;;;;9.25;87.96;101353.81;7400226;19;20018;-66
2022/11/02 00:22:44;;;;;;;10.60;4.38;;;;;;;9.21;87.70;101354.72;7398053;19;20372;-65
2022/11/02 00:25:18;;;;;;;6.63;4.57;;;;;;;9.15;87.73;101350.41;7399281;19;20031;-66
2022/11/02 00:27:47;;;;;;;8.35;4.32;;;;;;;9.14;87.78;101348.66;7398060;19;20022;-66
2022/11/02 00:30:16;;;;;;;7.00;4.20;;;;;;;9.11;87.60;101351.28;7397579;19;20044;-66
2022/11/02 00:32:44;;;;;;;4.72;4.00;;;;;;;9.08;87.42;101356.56;7397686;19;20039;-65
2022/11/02 00:35:13;;;;;;;6.82;4.00;;;;;;;9.05;87.64;101356.56;7399349;19;20498;-66
2022/11/02 00:37:41;;;;;;;6.07;3.60;;;;;;;9.02;87.53;101357.44;7399757;19;20078;-65
2022/11/02 00:40:11;;;;;;;7.72;4.30;;;;;;;8.98;87.56;101360.97;7396809;19;20431;-66
2022/11/02 00:42:42;;;;;;;8.32;3.85;;;;;;;8.94;87.30;101360.09;7397056;19;20022;-65
2022/11/02 00:45:11;;;;;;;6.35;3.40;;;;;;;8.92;87.29;101371.47;7397394;19;20035;-65
2022/11/02 00:47:39;;;;;;;7.38;3.40;;;;;;;8.89;87.33;101368.88;7396623;19;20078;-65
2022/11/02 00:50:16;;;;;;;7.05;4.07;;;;;;;8.87;87.15;101361.03;7396667;19;20427;-65
2022/11/02 00:52:45;;;;;;;6.55;3.78;;;;;;;8.83;87.07;101372.38;7396971;19;20099;-65
2022/11/02 00:55:14;;;;;;;5.25;3.50;;;;;;;8.80;87.28;101362.78;7399174;19;20026;-65
2022/11/02 00:57:45;;;;;;;5.90;3.55;;;;;;;8.78;87.15;101369.78;7398650;19;20011;-65
2022/11/02 01:00:15;;;;;;;4.40;3.53;;;;;;;8.75;87.03;101364.56;7399107;19;20014;-66
2022/11/02 01:02:44;;;;;;;8.30;4.43;;;;;;;8.73;87.06;101365.44;7397730;19;20010;-65
2022/11/02 01:05:13;;;;;;;6.88;4.00;;;;;;;8.72;87.02;101358.47;7396628;19;20174;-65
2022/11/02 01:07:42;;;;;;;5.85;3.28;;;;;;;8.67;86.94;101361.13;7398772;19;20018;-65
2022/11/02 01:10:12;;;;;;;5.95;3.28;;;;;;;8.63;86.88;101360.25;7398705;19;20022;-65
2022/11/02 01:12:42;;;;;;;7.10;3.67;;;;;;;8.60;87.02;101357.63;7396940;19;20027;-66
2022/11/02 01:15:13;;;;;;;5.85;3.47;;;;;;;8.57;86.86;101360.28;7398053;19;20039;-65
2022/11/02 01:17:41;;;;;;;5.80;3.38;;;;;;;8.54;86.70;101364.66;7396749;19;20424;-66
2022/11/02 01:20:11;;;;;;;7.15;3.40;;;;;;;8.48;86.62;101362.94;7398294;19;20035;-65
2022/11/02 01:22:40;;;;;;;6.60;3.63;;;;;;;8.43;86.65;101364.66;7396158;19;20094;-65
2022/11/02 01:25:15;;;;;;;4.28;2.90;;;;;;;8.39;86.71;101355.06;7397048;19;20384;-65
2022/11/02 01:27:43;;;;;;;5.78;3.20;;;;;;;8.37;86.85;101355.06;7393987;19;20099;-65
2022/11/02 01:30:15;;;;;;;6.00;2.75;;;;;;;8.34;86.79;101362.06;7397689;19;20109;-65
2022/11/02 01:32:44;;;;;;;6.60;3.15;;;;;;;8.31;86.89;101355.97;7395726;19;20538;-65
2022/11/02 01:35:12;;;;;;;7.05;3.75;;;;;;;8.29;86.94;101360.34;7397826;19;20015;-65
2022/11/02 01:37:40;;;;;;;7.93;3.42;;;;;;;8.26;86.90;101357.69;7397352;19;20480;-66
2022/11/02 01:40:10;;;;;;;4.63;3.03;;;;;;;8.23;86.95;101349.88;7397627;19;20035;-64
2022/11/02 01:42:39;;;;;;;6.38;2.70;;;;;;;8.20;87.03;101336.84;7395423;19;20510;-64
2022/11/02 01:45:09;;;;;;;4.60;3.00;;;;;;;8.18;87.08;101343.78;7395498;19;20022;-64
2022/11/02 01:47:44;;;;;;;7.68;4.60;;;;;;;8.15;87.29;101347.28;7396759;19;20018;-71
2022/11/02 01:50:18;;;;;;;7.47;3.88;;;;;;;8.11;87.16;101339.44;7397348;19;20364;-66
2022/11/02 01:52:46;;;;;;;6.82;3.53;;;;;;;8.10;87.67;101341.22;7395808;19;20039;-65
2022/11/02 01:55:20;;;;;;;6.30;3.63;;;;;;;8.09;87.83;101349.06;7397284;19;20074;-65
2022/11/02 01:57:53;;;;;;;7.47;3.97;;;;;;;8.07;87.93;101345.56;7397594;19;20011;-65
2022/11/02 02:00:22;;;;;;;8.90;5.05;;;;;;;8.03;88.11;101342.09;7396765;19;20027;-65
2022/11/02 02:02:57;;;;;;;11.25;4.75;;;;;;;8.02;88.29;101340.34;7394685;19;20087;-65
2022/11/02 02:05:26;;;;;;;8.35;4.80;;;;;;;8.00;88.44;101329.03;7396973;19;20035;-65
2022/11/02 02:07:55;;;;;;;7.57;4.40;;;;;;;7.99;88.66;101332.50;7395039;19;20035;-65
2022/11/02 02:10:24;;;;;;;7.32;4.63;;;;;;;7.97;88.75;101337.75;7394581;19;20032;-65
2022/11/02 02:12:53;;;;;;;7.30;4.53;;;;;;;7.96;89.09;101324.66;7395471;19;20066;-64
2022/11/02 02:15:23;;;;;;;7.13;5.07;;;;;;;7.95;89.05;101329.03;7394834;19;20022;-65
2022/11/02 02:18:00;;;;;;;6.68;4.53;;;;;;;7.94;89.51;101324.66;7394413;19;20019;-65
2022/11/02 02:20:49;;;;;;;10.05;5.13;;;;;;;7.93;89.40;101319.47;7396851;19;20082;-65
2022/11/02 02:23:55;;;;;;;5.05;4.30;;;;;;;7.92;89.59;101317.72;7395955;19;20490;-65
2022/11/02 02:26:52;;;;;;;8.45;4.78;;;;;;;7.91;89.56;101329.03;7392863;19;20022;-65
2022/11/02 02:29:26;;;;;;;9.38;4.50;;;;;;;7.90;89.54;101332.50;7396534;19;20035;-65
2022/11/02 02:31:59;;;;;;;10.68;4.65;;;;;;;7.89;89.46;101336.88;7395396;19;20044;-65
2022/11/02 02:34:36;;;;;;;5.75;4.30;;;;;;;7.89;89.58;101343.84;7396441;19;20035;-65
2022/11/02 02:37:09;;;;;;;10.25;4.57;;;;;;;7.88;89.74;101344.72;7393252;19;20099;-65
2022/11/02 02:39:45;;;;;;;12.05;4.05;;;;;;;7.89;89.51;101333.41;7396243;19;20032;-65
2022/11/02 02:42:20;;;;;;;6.97;4.07;;;;;;;7.89;89.64;101338.63;7393712;19;20392;-65
2022/11/02 02:45:00;;;;;;;9.05;3.92;;;;;;;7.89;89.57;101334.25;7394343;19;20021;-65
2022/11/02 02:47:32;;;;;;;7.90;4.05;;;;;;;7.90;89.69;101329.88;7394078;19;20094;-65
2022/11/02 02:50:09;;;;;;;5.22;3.72;;;;;;;7.90;89.52;101322.94;7394092;19;20022;-64
2022/11/02 02:52:40;;;;;;;7.30;4.20;;;;;;;7.90;89.35;101327.28;7394130;19;20022;-64
2022/11/02 02:55:15;;;;;;;9.73;4.57;;;;;;;7.90;89.34;101327.28;7395518;19;20027;-64
2022/11/02 02:57:44;;;;;;;9.63;3.25;;;;;;;7.90;89.52;101322.06;7395742;19;20027;-64
2022/11/02 03:00:19;;;;;;;7.50;3.83;;;;;;;7.88;89.50;101322.06;7394813;19;20031;-64
2022/11/02 03:02:59;;;;;;;8.75;4.35;;;;;;;7.88;89.48;101322.06;7393208;19;20019;-65
2022/11/02 03:05:30;;;;;;;6.60;3.65;;;;;;;7.88;89.45;101311.63;7395339;19;20019;-65
2022/11/02 03:08:04;;;;;;;6.47;3.55;;;;;;;7.88;89.43;101315.97;7393678;19;20010;-65
2022/11/02 03:10:38;;;;;;;9.85;3.80;;;;;;;7.86;89.53;101323.81;7394589;19;20606;-65
2022/11/02 03:13:30;;;;;;;9.07;3.70;;;;;;;7.87;89.49;101322.06;7394659;19;20070;-65
2022/11/02 03:16:06;;;;;;;9.80;3.78;;;;;;;7.86;89.49;101316.00;7395143;19;20032;-65
2022/11/02 03:18:44;;;;;;;5.05;3.10;;;;;;;7.84;89.54;101317.72;7395726;19;20039;-64
2022/11/02 03:21:23;;;;;;;7.40;3.40;;;;;;;7.80;89.43;101316.84;7393682;19;20031;-65
2022/11/02 03:23:57;;;;;;;4.50;3.33;;;;;;;7.81;89.45;101320.34;7396080;19;20026;-64
2022/11/02 03:26:32;;;;;;;9.18;3.67;;;;;;;7.79;89.34;101322.94;7392126;19;20074;-65
2022/11/02 03:29:06;;;;;;;7.75;3.72;;;;;;;7.78;89.28;101321.19;7394778;19;20032;-64
2022/11/02 03:31:43;;;;;;;7.35;3.75;;;;;;;7.78;89.14;101315.13;7393748;19;20032;-64
2022/11/02 03:34:19;;;;;;;7.70;3.42;;;;;;;7.77;89.21;101318.59;7394508;19;20022;-65
2022/11/02 03:36:51;;;;;;;8.38;3.58;;;;;;;7.75;89.43;101315.13;7394251;19;20022;-65
2022/11/02 03:39:23;;;;;;;7.80;3.40;;;;;;;7.72;89.14;101317.72;7391727;19;20485;-63
2022/11/02 03:41:54;;;;;;;9.98;3.25;;;;;;;7.72;89.31;101325.56;7393242;19;20022;-64
2022/11/02 03:44:26;;;;;;;6.65;3.35;;;;;;;7.69;89.06;101322.97;7394457;19;20074;-64
2022/11/02 03:47:01;;;;;;;8.43;3.10;;;;;;;7.68;89.34;101326.44;7391606;19;20035;-65
2022/11/02 03:49:31;;;;;;;6.43;2.92;;;;;;;7.67;89.02;101328.16;7393309;19;20027;-64
2022/11/02 03:52:05;;;;;;;8.48;3.17;;;;;;;7.66;89.14;101322.09;7400011;19;20031;-64
2022/11/02 03:54:42;;;;;;;7.00;2.90;;;;;;;7.65;89.05;101325.56;7401299;19;20022;-65
2022/11/02 03:57:16;;;;;;;7.97;3.05;;;;;;;7.64;89.05;101321.19;7401577;19;20026;-64
2022/11/02 03:59:45;;;;;;;8.65;4.20;;;;;;;7.64;89.18;101322.97;7398908;19;20423;-64
2022/11/02 04:02:18;;;;;;;9.50;4.35;;;;;;;7.64;89.13;101329.03;7398574;19;20019;-64
2022/11/02 04:04:51;;;;;;;11.20;2.58;;;;;;;7.63;89.24;101322.09;7400443;19;20017;-64
2022/11/02 04:07:25;;;;;;;6.60;2.85;;;;;;;7.63;89.12;101318.59;7398724;19;20078;-64
2022/11/02 04:09:53;;;;;;;;;;;;;;;7.63;89.38;101319.50;7399078;19;20077;-64
2022/11/02 04:15:02;;;;;;;9.93;2.58;;;;;;;7.62;89.21;101314.25;7400745;19;20081;-64
2022/11/02 04:20:14;;;;;;;4.72;2.92;;;;;;;7.62;89.27;101311.63;7400782;19;20027;-63
2022/11/02 04:25:24;;;;;;;10.30;3.08;;;;;;;7.60;89.25;101322.09;7400348;19;20018;-64
2022/11/02 04:27:54;;;;;;;8.30;2.65;;;;;;;7.60;89.50;101326.44;7397790;19;20083;-65
2022/11/02 04:30:24;;;;;;;10.75;4.00;;;;;;;7.59;89.50;101325.56;7397039;19;20482;-64
2022/11/02 04:35:37;;;;;;;8.27;2.83;;;;;;;7.59;89.41;101316.88;7400340;19;20014;-64
2022/11/02 04:40:47;;;;;;;8.68;2.90;;;;;;;7.57;89.77;101319.50;7398730;19;20007;-64
2022/11/02 04:43:15;;;;;;;8.15;3.25;;;;;;;7.59;89.64;101322.94;7396222;19;20014;-63
2022/11/02 04:45:44;;;;;;;9.30;2.88;;;;;;;7.59;89.63;101309.03;7399352;19;20015;-64
2022/11/02 04:48:15;;;;;;;7.05;2.50;;;;;;;7.60;89.86;101322.09;7396262;19;20035;-64
2022/11/02 04:50:43;;;;;;;11.50;2.75;;;;;;;7.61;89.93;101316.00;7399877;19;20027;-65
2022/11/02 04:53:12;;;;;;;7.47;2.97;;;;;;;7.63;89.82;101321.22;7399042;19;20015;-64
2022/11/02 04:55:40;;;;;;;10.48;2.92;;;;;;;7.63;89.95;101319.50;7398424;19;20486;-64
2022/11/02 04:58:08;;;;;;;5.18;2.60;;;;;;;7.66;89.88;101318.63;7398132;19;20015;-64
2022/11/02 05:00:37;;;;;;;6.00;3.13;;;;;;;7.69;89.92;101320.34;7397848;19;20018;-64
2022/11/02 05:03:05;;;;;;;11.55;3.00;;;;;;;7.71;90.07;101315.97;7398179;19;20507;-64
2022/11/02 05:05:36;;;;;;;6.57;2.80;;;;;;;7.73;89.87;101312.50;7398458;19;20035;-65
2022/11/02 05:08:05;;;;;;;9.20;3.30;;;;;;;7.74;89.95;101309.03;7396836;19;20082;-65
2022/11/02 05:10:33;;;;;;;6.28;2.47;;;;;;;7.77;89.84;101313.38;7398317;19;20031;-65
2022/11/02 05:13:02;;;;;;;8.93;3.13;;;;;;;7.78;89.78;101315.97;7395261;19;20018;-65
2022/11/02 05:15:31;;;;;;;7.60;2.72;;;;;;;7.79;89.91;101312.50;7397958;19;20035;-66
2022/11/02 05:17:59;;;;;;;5.10;2.55;;;;;;;7.80;89.71;101316.00;7397919;19;20117;-64
2022/11/02 05:20:28;;;;;;;6.88;3.17;;;;;;;7.79;89.69;101312.50;7397837;19;20088;-65
2022/11/02 05:22:59;;;;;;;8.75;3.05;;;;;;;7.80;89.79;101316.00;7395378;19;20482;-64
2022/11/02 05:25:27;;;;;;;6.63;3.38;;;;;;;7.80;89.96;101323.81;7395474;19;20087;-65
2022/11/02 05:27:58;;;;;;;6.63;3.10;;;;;;;7.80;89.85;101316.84;7396646;19;20048;-63
2022/11/02 05:30:27;;;;;;;8.43;3.15;;;;;;;7.79;89.99;101328.16;7397244;19;20032;-65
2022/11/02 05:32:57;;;;;;;6.65;3.05;;;;;;;7.79;89.75;101317.72;7395130;19;20039;-65
2022/11/02 05:35:26;;;;;;;8.40;2.70;;;;;;;7.79;89.79;101316.84;7396919;19;20506;-63
2022/11/02 05:37:59;;;;;;;13.43;3.60;;;;;;;7.79;89.78;101320.31;7395552;19;20018;-65
2022/11/02 05:40:27;;;;;;;11.02;3.15;;;;;;;7.79;89.72;101324.69;7397720;19;20015;-64
2022/11/02 05:43:01;;;;;;;8.07;3.30;;;;;;;7.77;89.87;101322.09;7395080;19;20085;-64
2022/11/02 05:45:29;;;;;;;6.33;2.83;;;;;;;7.77;89.64;101322.09;7397547;19;20381;-64
2022/11/02 05:47:58;;;;;;;7.55;2.90;;;;;;;7.77;89.67;101310.75;7393985;19;20019;-64
2022/11/02 05:50:26;;;;;;;9.40;3.30;;;;;;;7.75;89.66;101316.00;7395570;19;20070;-65
2022/11/02 05:52:55;;;;;;;11.15;3.67;;;;;;;7.74;89.65;101318.59;7394253;19;20039;-64
2022/11/02 05:55:26;;;;;;;7.20;3.05;;;;;;;7.73;89.87;101312.50;7397050;19;20014;-64
2022/11/02 05:57:55;;;;;;;11.13;3.08;;;;;;;7.72;89.70;101304.66;7394448;19;20409;-65
2022/11/02 06:00:25;;;;;;;8.63;2.42;;;;;;;7.70;89.83;101304.69;7396481;19;20073;-65
2022/11/02 06:02:58;;;;;;;6.15;2.97;;;;;;;7.70;90.52;101309.91;7394887;19;20030;-65
2022/11/02 06:05:27;;;;;;;7.78;2.40;;;;;;;7.73;90.28;101309.03;7396526;19;20015;-65
2022/11/02 06:08:00;;;;;;;24.13;3.50;;;;;;;7.74;90.05;101300.31;7394625;19;20018;-65
2022/11/02 06:10:32;;;;;;;7.32;3.05;;;;;;;7.73;89.85;101296.81;7397927;19;20018;-65
2022/11/02 06:13:02;;;;;;;7.35;2.42;;;;;;;7.74;89.89;101308.16;7392466;19;20073;-66
2022/11/02 06:15:32;;;;;;;6.32;2.50;;;;;;;7.74;89.95;101305.53;7396008;19;20482;-66
2022/11/02 06:18:01;;;;;;;8.38;2.90;;;;;;;7.76;89.72;101301.16;7395657;19;20470;-65
2022/11/02 06:20:29;;;;;;;10.02;3.00;;;;;;;7.78;89.66;101304.66;7396130;19;20035;-65
2022/11/02 06:22:57;;;;;;;5.90;2.85;;;;;;;7.80;89.77;101306.41;7393529;19;20538;-66
2022/11/02 06:25:26;;;;;;;9.07;2.70;;;;;;;7.82;89.62;101301.16;7394097;19;20011;-65
2022/11/02 06:27:58;;;;;;;5.13;2.80;;;;;;;7.85;89.51;101289.84;7393767;19;20075;-66
2022/11/02 06:30:27;;;;;;;8.90;2.70;;;;;;;7.87;89.50;101294.19;7394027;19;20019;-67
2022/11/02 06:32:56;;;;;;;8.75;3.42;;;;;;;7.91;89.45;101303.78;7394036;19;20079;-66
2022/11/02 06:35:24;;;;;;;13.88;4.57;;;;;;;7.92;89.22;101308.16;7395637;19;20031;-65
2022/11/02 06:37:53;;;;;;;4.50;2.58;;;;;;;7.93;89.28;101309.84;7395634;19;20022;-65
2022/11/02 06:40:21;;;;;;;4.63;2.22;;;;;;;7.97;89.01;101318.56;7395404;19;20019;-66
2022/11/02 06:42:50;;;;;;;9.13;2.70;;;;;;;7.99;89.17;101322.91;7393700;19;20035;-66
2022/11/02 06:45:21;;;;;;;7.68;2.95;;;;;;;8.00;88.79;101336.88;7393750;19;20022;-66
2022/11/02 06:47:57;;;;;;;6.90;2.45;;;;;;;8.01;88.76;101330.75;7394544;19;20014;-66
2022/11/02 06:50:25;;;;;;;6.63;2.58;;;;;;;8.01;88.79;101330.75;7394519;19;20010;-66
2022/11/02 06:52:54;;;;;;;10.88;2.25;;;;;;;8.03;88.72;101341.22;7393874;19;20022;-66
2022/11/02 06:55:23;;;;;;;6.80;2.72;;;;;;;8.01;88.71;101330.75;7393495;19;20340;-66
2022/11/02 06:57:52;;;;;;;11.88;3.10;;;;;;;7.99;88.82;101330.75;7393222;19;20015;-66
2022/11/02 07:00:23;;;;;;;9.25;2.22;;;;;;;8.01;88.84;101332.50;7394225;19;20444;-66
2022/11/02 07:03:01;;;;;;;10.13;2.40;;;;;;;8.01;88.58;101340.34;7392270;19;20045;-66
2022/11/02 07:05:30;;;;;;;8.27;2.40;;;;;;;7.99;88.81;101335.97;7394949;19;20019;-66
2022/11/02 07:07:59;;;;;;;10.75;2.90;;;;;;;7.99;88.59;101343.81;7393241;19;20022;-66
2022/11/02 07:10:28;;;;;;;3.35;2.33;;;;;;;8.00;88.82;101344.72;7394480;19;20031;-66
2022/11/02 07:12:57;;;;;;;11.15;3.03;;;;;;;8.01;89.02;101342.94;7393595;19;20035;-66
2022/11/02 07:15:29;;;;;;;10.20;3.17;;;;;;;8.00;88.74;101344.72;7391855;19;20022;-66
2022/11/02 07:17:57;;;;;;;7.05;2.47;;;;;;;8.02;88.72;101340.34;7393356;19;20018;-66
2022/11/02 07:20:26;;;;;;;8.05;2.25;;;;;;;8.03;88.88;101342.09;7392918;19;20478;-66
2022/11/02 07:22:55;;;;;;;10.60;2.90;;;;;;;8.04;88.85;101345.53;7391833;19;20035;-66
2022/11/02 07:25:23;;;;;;;9.15;2.75;;;;;;;8.05;88.79;101352.53;7401479;19;20481;-65
2022/11/02 07:27:52;;;;;;;9.60;2.50;;;;;;;8.07;88.79;101342.94;7400766;19;20022;-65
2022/11/02 07:30:20;;;;;;;6.95;2.80;;;;;;;8.09;89.03;101346.44;7398683;19;20022;-65
2022/11/02 07:32:51;;;;;;;6.60;2.70;;;;;;;8.12;89.30;101347.28;7397985;19;20031;-66
2022/11/02 07:35:21;;;;;;;8.52;3.08;;;;;;;8.16;89.10;101356.00;7398994;19;20074;-66
2022/11/02 07:37:57;;;;;;;7.85;3.20;;;;;;;8.20;88.91;101362.97;7398583;19;20019;-66
2022/11/02 07:40:25;;;;;;;11.57;2.90;;;;;;;8.24;88.97;101359.47;7398706;19;20042;-65
2022/11/02 07:42:55;;;;;;;6.55;2.67;;;;;;;8.30;88.98;101355.97;7398350;19;20031;-66
2022/11/02 07:45:24;;;;;;;9.90;2.80;;;;;;;8.36;88.87;101349.84;7402227;19;20018;-66
2022/11/02 07:47:55;;;;;;;8.77;2.78;;;;;;;8.43;88.79;101348.97;7398627;19;20039;-66
2022/11/02 07:50:25;;;;;;;6.30;2.00;;;;;;;8.50;88.57;101358.56;7398911;19;20015;-66
2022/11/02 07:52:55;;;;;;;4.82;2.05;;;;;;;8.59;88.34;101360.25;7398393;19;20025;-66
2022/11/02 07:55:27;;;;;;;6.97;2.25;;;;;;;8.69;88.29;101359.34;7401246;19;20026;-66
2022/11/02 07:57:56;;;;;;;8.05;2.92;;;;;;;8.78;88.18;101372.41;7401598;19;20502;-66
2022/11/02 08:00:26;;;;;;;9.65;2.53;;;;;;;8.90;87.72;101374.09;7400763;19;20035;-67
2022/11/02 08:03:00;;;;;;;9.02;2.40;;;;;;;9.04;86.81;101381.88;7398223;19;20014;-64
2022/11/02 08:05:30;;;;;;;8.82;2.40;;;;;;;9.19;86.59;101377.44;7398622;19;20039;-65
2022/11/02 08:07:59;;;;;;;10.18;2.05;;;;;;;9.33;86.50;101372.97;7397904;19;20082;-65
2022/11/02 08:10:28;;;;;;;7.88;2.10;;;;;;;9.48;85.92;101376.38;7400668;19;20019;-66
2022/11/02 08:12:57;;;;;;;4.90;1.70;;;;;;;9.62;85.14;101377.16;7397317;19;20027;-66
2022/11/02 08:15:26;;;;;;;10.40;2.22;;;;;;;9.75;84.81;101375.31;7397232;19;20019;-66
2022/11/02 08:18:05;;;;;;;7.07;1.63;;;;;;;9.87;83.38;101364.72;7397376;19;20026;-65
2022/11/02 08:20:35;;;;;;;10.57;2.10;;;;;;;10.00;83.98;101372.47;7401057;19;20032;-66
2022/11/02 08:23:04;;;;;;;8.50;1.58;;;;;;;10.07;83.64;101369.78;7397700;19;20419;-66
2022/11/02 08:25:33;;;;;;;7.80;1.65;;;;;;;10.18;83.06;101380.16;7399730;19;20019;-66
2022/11/02 08:28:02;;;;;;;8.82;1.70;;;;;;;10.24;83.06;101385.34;7397810;19;20040;-66
2022/11/02 08:30:32;;;;;;;8.75;1.92;;;;;;;10.31;82.56;101390.53;7397458;19;20458;-65
2022/11/02 08:33:08;;;;;;;7.07;1.55;;;;;;;10.36;82.03;101394.00;7396910;19;20086;-65
2022/11/02 08:35:37;;;;;;;6.93;1.90;;;;;;;10.42;82.87;101384.28;7395058;19;20411;-65
2022/11/02 08:38:06;;;;;;;8.50;1.52;;;;;;;10.47;82.51;101391.28;7396609;19;20510;-66
2022/11/02 08:40:35;;;;;;;5.72;1.58;;;;;;;10.51;82.94;101380.69;7399212;19;20014;-65
2022/11/02 08:43:05;;;;;;;7.75;1.67;;;;;;;10.57;82.35;101387.66;7396278;19;20014;-65
2022/11/02 08:45:35;;;;;;;8.70;1.80;;;;;;;10.62;82.08;101395.47;7397285;19;20018;-66
2022/11/02 08:48:07;;;;;;;9.85;1.92;;;;;;;10.69;81.86;101391.88;7398260;19;20044;-66
2022/11/02 08:50:37;;;;;;;9.93;2.28;;;;;;;10.76;79.89;101398.81;7396708;19;20077;-67
2022/11/02 08:53:05;;;;;;;11.85;2.13;;;;;;;10.84;80.57;101377.69;7399044;19;20019;-66
2022/11/02 08:55:35;;;;;;;6.32;1.83;;;;;;;10.90;79.64;101381.09;7396832;19;20035;-65
2022/11/02 08:58:04;;;;;;;6.22;1.63;;;;;;;10.99;80.19;101382.75;7398887;19;20044;-65
2022/11/02 09:00:34;;;;;;;10.48;2.15;;;;;;;11.03;79.66;101380.94;7398661;19;20018;-66
2022/11/02 09:03:07;;;;;;;9.95;1.63;;;;;;;11.09;79.42;101380.88;7396502;19;20482;-66
2022/11/02 09:05:37;;;;;;;8.25;2.30;;;;;;;11.17;79.39;101383.38;7396964;19;20011;-66
2022/11/02 09:08:08;;;;;;;9.88;2.50;;;;;;;11.21;78.54;101385.97;7397857;19;20035;-65
2022/11/02 09:10:38;;;;;;;8.82;2.22;;;;;;;11.27;78.19;101384.13;7398985;19;20490;-66
2022/11/02 09:13:09;;;;;;;9.30;1.80;;;;;;;11.30;75.97;101394.59;7398726;19;20028;-66
2022/11/02 09:15:39;;;;;;;8.43;1.42;;;;;;;11.35;77.89;101390.16;7396273;19;20011;-66
2022/11/02 09:18:11;;;;;;;8.55;2.15;;;;;;;11.38;77.26;101387.47;7398154;19;20015;-66
2022/11/02 09:20:39;;;;;;;9.00;1.88;;;;;;;11.41;75.76;101392.66;7395457;19;20100;-68
2022/11/02 09:23:08;;;;;;;6.82;1.83;;;;;;;11.47;76.86;101386.47;7398353;19;20018;-67
2022/11/02 09:25:36;;;;;;;9.80;2.75;;;;;;;11.52;76.76;101397.78;7398079;19;20019;-66
2022/11/02 09:28:05;;;;;;;6.75;1.58;;;;;;;11.57;76.23;101402.09;7397158;19;20018;-66
2022/11/02 09:30:34;;;;;;;11.10;1.92;;;;;;;11.58;75.57;101380.16;7395681;19;20422;-66
2022/11/02 09:33:03;;;;;;;9.27;2.38;;;;;;;11.65;74.59;101390.56;7395448;19;20027;-65
2022/11/02 09:35:36;;;;;;;11.55;1.95;;;;;;;11.68;75.16;101396.66;7395041;19;20023;-65
2022/11/02 09:38:05;;;;;;;8.10;1.50;;;;;;;11.73;75.27;101401.84;7394783;19;20018;-66
2022/11/02 09:40:39;;;;;;;8.45;2.08;;;;;;;11.79;74.88;101414.88;7395565;19;20042;-65
2022/11/02 09:43:12;;;;;;;;;;;;;;;11.83;73.98;101403.41;7398331;19;20031;-66
2022/11/02 09:45:48;;;;;;;10.13;2.28;;;;;;;11.87;73.70;101386.69;7395512;19;19987;-65
2022/11/02 09:48:20;;;;;;;6.70;1.60;;;;;;;11.93;74.25;101411.16;7394302;19;20019;-65
2022/11/02 09:50:56;;;;;;;9.00;1.55;;;;;;;11.99;73.39;101408.44;7394943;19;20027;-65
2022/11/02 09:53:46;;;;;;;8.75;1.70;;;;;;;12.04;73.23;101399.59;7397012;19;20019;-65
2022/11/02 09:56:18;;;;;;;7.97;1.55;;;;;;;12.10;72.98;101414.38;7397143;19;20572;-65
2022/11/02 09:58:51;;;;;;;10.40;2.10;;;;;;;12.14;72.81;101405.53;7395192;19;20018;-65
2022/11/02 10:01:30;;;;;;;7.90;1.40;;;;;;;12.19;71.59;101413.38;7396332;19;20019;-65
2022/11/02 10:04:21;;;;;;;7.78;1.83;;;;;;;12.25;71.76;101415.88;7396376;19;20541;-65
2022/11/02 10:07:03;;;;;;;11.52;2.72;;;;;;;12.31;72.11;101413.16;7394611;19;20510;-66
2022/11/02 10:09:41;;;;;;;5.85;2.28;;;;;;;12.36;71.25;101407.81;7394538;19;20014;-66
2022/11/02 10:12:15;;;;;;;10.55;2.15;;;;;;;12.42;70.82;101407.66;7395464;19;20037;-66
2022/11/02 10:14:52;;;;;;;7.80;1.90;;;;;;;12.49;70.17;101418.97;7395878;19;20428;-65
2022/11/02 10:17:25;;;;;;;7.72;1.40;;;;;;;12.52;71.20;101432.94;7396775;19;20027;-65
2022/11/02 10:19:57;;;;;;;6.07;1.77;;;;;;;12.61;71.54;101423.13;7394063;19;20014;-65
2022/11/02 10:22:33;;;;;;;10.88;2.25;;;;;;;12.65;70.39;101423.03;7395314;19;20027;-65
2022/11/02 10:25:05;;;;;;;8.93;1.35;;;;;;;12.69;68.73;101421.22;7396569;19;20036;-65
2022/11/02 10:27:38;;;;;;;7.70;1.50;;;;;;;12.75;70.16;101420.22;7396351;19;20029;-65
2022/11/02 10:30:13;;;;;;;9.18;1.92;;;;;;;12.78;69.58;101422.81;7394830;19;20018;-64
2022/11/02 10:32:44;;;;;;;7.38;2.13;;;;;;;12.83;68.26;101432.31;7395289;19;20022;-64
2022/11/02 10:35:20;;;;;;;8.65;1.90;;;;;;;12.90;68.44;101440.09;7395206;19;20366;-64
2022/11/02 10:38:04;;;;;;;9.80;1.60;;;;;;;12.95;68.98;101423.31;7395427;19;20467;-63
2022/11/02 10:40:57;;;;;;;8.55;1.90;;;;;;;13.01;67.26;101430.22;7394005;19;20022;-63
2022/11/02 10:43:44;;;;;;;5.55;1.70;;;;;;;13.08;66.50;101425.69;7393999;19;20035;-65
2022/11/02 10:46:28;;;;;;;5.05;1.25;;;;;;;13.13;67.19;101434.34;7393943;19;20026;-64
2022/11/02 10:49:06;;;;;;;4.97;1.50;;;;;;;13.17;67.27;101426.34;7393666;19;20069;-65
2022/11/02 10:51:35;;;;;;;7.35;1.92;;;;;;;13.22;67.78;101428.03;7394114;19;20023;-64
2022/11/02 10:54:14;;;;;;;7.50;1.60;;;;;;;13.27;67.05;101420.88;7392897;19;20031;-64
2022/11/02 10:56:45;;;;;;;11.60;2.65;;;;;;;13.32;67.34;101422.53;7392976;19;20014;-64
2022/11/02 10:59:16;;;;;;;9.73;2.08;;;;;;;13.38;66.85;101429.44;7391196;19;20070;-64
2022/11/02 11:01:48;;;;;;;7.05;2.35;;;;;;;13.44;66.93;101424.03;7393707;19;20018;-64
2022/11/02 11:04:26;;;;;;;11.52;2.17;;;;;;;13.51;66.82;101428.28;7394198;19;20015;-64
2022/11/02 11:06:55;;;;;;;11.82;2.17;;;;;;;13.56;66.68;101422.91;7394483;19;20432;-63
2022/11/02 11:09:29;;;;;;;4.82;1.48;;;;;;;13.59;65.29;101428.09;7393049;19;20027;-63
2022/11/02 11:11:59;;;;;;;9.02;1.75;;;;;;;13.62;65.40;101427.16;7393282;19;20026;-63
2022/11/02 11:14:31;;;;;;;7.45;1.60;;;;;;;13.67;66.46;101425.28;7395297;19;20010;-64
2022/11/02 11:17:02;;;;;;;10.10;2.00;;;;;;;13.72;65.89;101433.94;7394125;19;20018;-63
2022/11/02 11:19:36;;;;;;;8.63;2.30;;;;;;;13.81;65.41;101428.47;7394672;19;20027;-64
2022/11/02 11:22:07;;;;;;;9.20;2.53;;;;;;;13.93;65.99;101445.75;7392253;19;20035;-64
2022/11/02 11:24:38;;;;;;;4.72;1.55;;;;;;;14.03;63.66;101435.84;7393538;19;20018;-64
2022/11/02 11:27:21;;;;;;;7.43;1.45;;;;;;;14.13;61.70;101432.06;7391965;19;20027;-64
2022/11/02 11:29:53;;;;;;;5.53;1.60;;;;;;;14.22;63.43;101438.88;7390737;19;20518;-65
2022/11/02 11:32:25;;;;;;;5.63;1.63;;;;;;;14.25;60.44;101437.94;7392472;19;20018;-65
2022/11/02 11:35:00;;;;;;;6.68;1.42;;;;;;;14.31;60.83;101437.78;7394394;19;20026;-65
2022/11/02 11:37:36;;;;;;;5.43;1.40;;;;;;;14.31;61.36;101435.97;7393605;19;20031;-65
2022/11/02 11:40:19;;;;;;;7.90;1.83;;;;;;;14.32;58.72;101431.59;7393151;19;20028;-64
2022/11/02 11:42:51;;;;;;;7.18;2.00;;;;;;;14.29;58.41;101452.75;7390606;19;20384;-65
2022/11/02 11:45:24;;;;;;;3.60;1.30;;;;;;;14.30;59.98;101441.31;7392160;19;20019;-63
2022/11/02 11:47:56;;;;;;;8.10;2.15;;;;;;;14.32;60.71;101434.22;7394418;19;20113;-64
2022/11/02 11:50:25;;;;;;;8.35;1.88;;;;;;;14.34;60.13;101432.41;7391417;19;20038;-65
2022/11/02 11:53:10;;;;;;;7.15;1.27;;;;;;;14.31;57.27;101429.84;7391141;19;20518;-65
2022/11/02 11:55:48;;;;;;;7.30;1.60;;;;;;;14.33;58.44;101441.22;7393155;19;20529;-65
2022/11/02 11:58:22;;;;;;;9.93;1.55;;;;;;;14.31;58.61;101440.41;7391409;19;20089;-66
2022/11/02 12:01:06;;;;;;;7.40;1.50;;;;;;;14.31;58.34;101443.03;7391091;19;20011;-64
2022/11/02 12:03:35;;;;;;;6.18;1.05;;;;;;;14.29;59.50;101434.28;7393534;19;20096;-65